Riceville, Pennsylvania
Current Conditions -  °F | °C
As of 8:29 AM on Friday 28 Nov 2014 (Local Time) from KGKJ Reporting Station
Light Snow Light Snow  
Wind Chill: 11°   Ceiling: 1500
Heat Index: 21°   Visibility: 3mi
Dew Point: 16°   Wind: 9mph
Humidity: 81%   Direction: 280°W
Pressure: 30.25"   Gusts: NA
Location:  41.78°N, 79.8°W
Report Text: KGKJ 281329Z AUTO 28008KT 3SM -SN SCT010 BKN015 OVC036 M06/M09 A3025 RMK AO2 P0000 T10611089 TSNO
Loading
Personal Weather Stations






























Interactive Weather Map New forecast layout! Learn more

10-Day Weather Forecast

Advertisements
Track Severe Weather on mobile